Time;durP1;ratioP1;P1;durP2;ratioP2;P2;SDS_P1;SDS_P2;PMS_P1;PMS_P2;Temp;Humidity;BMP_temperature;BMP_pressure;BME280_temperature;BME280_humidity;BME280_pressure;Samples;Min_cycle;Max_cycle;Signal;HPM_P1;HPM_P2
2023/08/12 01:06:20;;;;;;;0.32;0.32;;;;;;;14.50;100.00;100554.50;4850868;29;20065;-92
2023/08/12 01:08:47;;;;;;;0.73;0.30;;;;;;;14.51;100.00;100560.88;4823982;29;20098;-92
2023/08/12 01:11:35;;;;;;;0.25;0.25;;;;;;;14.48;100.00;100556.94;4840832;29;20045;-92
2023/08/12 01:14:03;;;;;;;0.52;0.52;;;;;;;14.49;100.00;100558.50;4825895;29;20050;-92
2023/08/12 01:16:30;;;;;;;0.45;0.45;;;;;;;14.49;100.00;100555.72;4826507;29;20053;-92
2023/08/12 01:18:56;;;;;;;0.65;0.63;;;;;;;14.41;100.00;100546.81;4840806;29;20045;-93
2023/08/12 01:21:24;;;;;;;0.50;0.50;;;;;;;14.43;100.00;100554.75;4824855;29;20060;-93
2023/08/12 01:23:50;;;;;;;0.20;0.20;;;;;;;14.43;100.00;100554.75;4830277;29;20485;-92
2023/08/12 01:26:16;;;;;;;0.10;0.10;;;;;;;14.36;100.00;100549.41;4826427;29;20034;-92
2023/08/12 01:28:42;;;;;;;0.43;0.43;;;;;;;14.39;100.00;100559.69;4825680;29;20106;-92
2023/08/12 01:31:36;;;;;;;0.52;0.28;;;;;;;14.37;100.00;100562.91;4841482;29;20041;-93
2023/08/12 01:34:12;;;;;;;0.65;0.50;;;;;;;14.34;100.00;100557.41;4825134;29;20061;-91
2023/08/12 01:36:40;;;;;;;0.30;0.30;;;;;;;14.26;100.00;100556.09;4837886;29;20077;-92
2023/08/12 01:39:08;;;;;;;0.57;0.57;;;;;;;14.23;100.00;100562.59;4823847;29;20394;-92
2023/08/12 01:41:34;;;;;;;0.10;0.10;;;;;;;14.08;100.00;100536.38;4818188;29;20133;-93
2023/08/12 01:44:01;;;;;;;0.73;0.73;;;;;;;14.12;100.00;100537.03;4825234;29;20299;-92
2023/08/12 01:46:28;;;;;;;0.45;0.32;;;;;;;14.21;100.00;100554.66;4826272;29;20049;-93
2023/08/12 01:48:54;;;;;;;1.27;1.00;;;;;;;14.18;100.00;100544.41;4822598;29;20072;-92
2023/08/12 01:51:20;;;;;;;0.43;0.43;;;;;;;14.18;100.00;100543.63;4833020;29;20129;-93
2023/08/12 01:53:45;;;;;;;0.32;0.32;;;;;;;14.13;100.00;100539.38;4824817;29;20053;-92
2023/08/12 01:56:11;;;;;;;0.32;0.32;;;;;;;14.12;100.00;100550.97;4828369;29;20046;-92
2023/08/12 01:58:36;;;;;;;0.40;0.30;;;;;;;14.09;100.00;100535.16;4824539;29;20462;-92
2023/08/12 02:01:02;;;;;;;0.08;0.08;;;;;;;14.12;100.00;100537.03;4825148;29;20049;-93
2023/08/12 02:03:28;;;;;;;0.20;0.20;;;;;;;14.20;100.00;100541.13;4838435;29;20804;-92
2023/08/12 02:05:53;;;;;;;0.70;0.70;;;;;;;14.18;100.00;100546.41;4867764;29;20465;-93
2023/08/12 02:08:19;;;;;;;0.03;0.03;;;;;;;14.16;100.00;100546.06;4874601;29;20737;-92
2023/08/12 02:10:44;;;;;;;1.05;0.70;;;;;;;14.05;100.00;100537.28;4878149;29;20044;-92
2023/08/12 02:13:10;;;;;;;0.90;0.52;;;;;;;14.00;100.00;100539.41;4873478;29;20052;-92
2023/08/12 02:15:35;;;;;;;0.20;0.20;;;;;;;14.06;100.00;100547.19;4874394;29;20093;-92
2023/08/12 02:18:01;;;;;;;0.17;0.17;;;;;;;14.02;100.00;100542.53;4840458;29;20053;-93
2023/08/12 02:20:27;;;;;;;0.32;0.32;;;;;;;14.00;100.00;100544.97;4851815;29;20057;-93
2023/08/12 02:22:53;;;;;;;1.00;0.65;;;;;;;13.92;100.00;100540.84;4874793;29;20413;-92
2023/08/12 02:25:19;;;;;;;0.25;0.25;;;;;;;13.89;100.00;100541.75;4858944;29;20041;-92
2023/08/12 02:27:44;;;;;;;0.30;0.20;;;;;;;13.89;100.00;100538.97;4873890;29;20040;-92
2023/08/12 02:30:11;;;;;;;0.30;0.30;;;;;;;13.89;100.00;100544.53;4873975;29;20140;-92
2023/08/12 02:32:36;;;;;;;0.30;0.30;;;;;;;13.90;100.00;100545.34;4867587;29;20050;-92
2023/08/12 02:35:03;;;;;;;0.00;0.00;;;;;;;13.86;100.00;100539.09;4837423;29;20052;-92
2023/08/12 02:37:29;;;;;;;0.88;0.68;;;;;;;13.87;100.00;100541.41;4864367;29;20056;-92
2023/08/12 02:39:55;;;;;;;0.13;0.10;;;;;;;13.81;100.00;100539.63;4859105;29;20036;-92
2023/08/12 02:42:20;;;;;;;1.70;1.05;;;;;;;13.83;100.00;100540.00;4866548;29;20510;-92
2023/08/12 02:44:46;;;;;;;0.00;0.00;;;;;;;13.82;100.00;100539.19;4852812;29;20079;-92
2023/08/12 02:47:11;;;;;;;0.75;0.43;;;;;;;13.79;100.00;100537.28;4863949;29;20112;-93
2023/08/12 02:49:37;;;;;;;0.20;0.20;;;;;;;13.75;100.00;100544.97;4873431;29;20096;-92
2023/08/12 02:52:02;;;;;;;1.67;0.75;;;;;;;13.71;100.00;100535.94;4867474;29;20049;-92
2023/08/12 02:54:28;;;;;;;0.20;0.20;;;;;;;13.69;100.00;100541.22;4835326;29;20045;-92
2023/08/12 02:56:54;;;;;;;0.20;0.20;;;;;;;13.62;100.00;100530.28;4862048;29;20033;-92
2023/08/12 02:59:19;;;;;;;0.47;0.47;;;;;;;13.58;100.00;100524.03;4869916;29;20068;-93
2023/08/12 03:01:45;;;;;;;0.35;0.35;;;;;;;13.57;100.00;100532.84;4873885;29;20102;-92
2023/08/12 03:04:10;;;;;;;0.10;0.10;;;;;;;13.54;100.00;100542.88;4871059;29;20048;-92
2023/08/12 03:06:36;;;;;;;0.22;0.22;;;;;;;13.48;100.00;100544.66;4813171;29;20417;-91
2023/08/12 03:09:03;;;;;;;0.00;0.00;;;;;;;13.44;100.00;100546.75;4806513;29;20087;-91
2023/08/12 03:11:28;;;;;;;0.32;0.32;;;;;;;13.47;100.00;100545.88;4857337;29;20083;-92
2023/08/12 03:13:56;;;;;;;0.22;0.22;;;;;;;13.43;100.00;100551.56;4821457;29;20050;-91
2023/08/12 03:16:24;;;;;;;0.47;0.43;;;;;;;13.31;100.00;100534.81;4822407;29;20110;-92
2023/08/12 03:18:51;;;;;;;0.10;0.10;;;;;;;13.45;100.00;100543.53;4839185;29;20048;-92
2023/08/12 03:21:17;;;;;;;1.23;1.13;;;;;;;13.37;100.00;100546.97;4812426;29;20419;-91
2023/08/12 03:23:43;;;;;;;0.50;0.38;;;;;;;13.43;100.00;100556.34;4839477;29;20046;-91
2023/08/12 03:26:09;;;;;;;0.38;0.38;;;;;;;13.38;100.00;100548.56;4821895;29;20054;-91
2023/08/12 03:28:35;;;;;;;0.63;0.40;;;;;;;13.25;100.00;100525.44;4823956;29;20561;-92
2023/08/12 03:31:01;;;;;;;0.25;0.25;;;;;;;13.37;100.00;100558.13;4839464;29;20136;-93
2023/08/12 03:33:26;;;;;;;0.10;0.10;;;;;;;13.33;100.00;100557.44;4839262;29;20054;-92
2023/08/12 03:35:54;;;;;;;0.80;0.52;;;;;;;13.30;100.00;100552.78;4822300;29;20049;-91
2023/08/12 03:38:20;;;;;;;0.43;0.30;;;;;;;13.30;100.00;100547.19;4836802;29;20510;-91
2023/08/12 03:40:46;;;;;;;0.15;0.10;;;;;;;13.33;100.00;100551.88;4825465;29;20053;-92
2023/08/12 03:43:13;;;;;;;0.90;0.90;;;;;;;13.36;100.00;100554.56;4820638;29;20359;-92
2023/08/12 03:45:43;;;;;;;0.63;0.63;;;;;;;13.38;100.00;100554.13;4810221;29;20406;-92
2023/08/12 03:48:11;;;;;;;0.30;0.30;;;;;;;13.35;100.00;100546.63;4843170;29;20042;-93
2023/08/12 03:50:38;;;;;;;1.55;0.55;;;;;;;13.37;100.00;100552.56;4842973;29;20041;-91
2023/08/12 03:53:04;;;;;;;1.30;0.80;;;;;;;13.40;100.00;100552.44;4842885;29;20152;-92
2023/08/12 03:55:33;;;;;;;0.55;0.55;;;;;;;13.17;100.00;100529.69;4827953;29;20057;-92
2023/08/12 03:57:59;;;;;;;0.75;0.35;;;;;;;13.35;100.00;100555.00;4808710;29;20064;-92
2023/08/12 04:00:27;;;;;;;1.38;0.73;;;;;;;13.37;100.00;100558.13;4825963;29;20056;-92
2023/08/12 04:02:57;;;;;;;2.00;1.00;;;;;;;13.19;100.00;100539.13;4814257;29;20124;-93
2023/08/12 04:05:22;;;;;;;1.85;0.63;;;;;;;13.28;100.00;100561.56;4862695;29;20150;-92
2023/08/12 04:07:48;;;;;;;0.30;0.30;;;;;;;13.27;100.00;100564.78;4862934;29;20088;-93
2023/08/12 04:10:14;;;;;;;0.10;0.10;;;;;;;13.28;100.00;100563.56;4879005;29;20071;-92
2023/08/12 04:12:41;;;;;;;0.60;0.60;;;;;;;13.28;100.00;100560.78;4884031;29;20125;-92
2023/08/12 04:15:08;;;;;;;0.20;0.20;;;;;;;13.26;100.00;100550.09;4879294;29;20068;-91
2023/08/12 04:17:34;;;;;;;0.95;0.55;;;;;;;13.17;100.00;100538.81;4854610;29;20045;-92
2023/08/12 04:20:03;;;;;;;0.10;0.10;;;;;;;13.32;100.00;100550.31;4857805;29;20038;-92
2023/08/12 04:22:30;;;;;;;0.73;0.73;;;;;;;13.40;100.00;100560.81;4870757;29;20530;-92
2023/08/12 04:24:56;;;;;;;0.38;0.38;;;;;;;13.45;100.00;100565.84;4858175;29;20132;-92
2023/08/12 04:27:21;;;;;;;0.80;0.55;;;;;;;13.44;100.00;100555.13;4869510;29;20146;-93
2023/08/12 04:29:47;;;;;;;0.28;0.28;;;;;;;13.53;100.00;100564.41;4876403;29;20045;-91
2023/08/12 04:32:13;;;;;;;1.95;1.20;;;;;;;13.58;100.00;100559.50;4851421;29;20056;-91
2023/08/12 04:34:39;;;;;;;0.45;0.30;;;;;;;13.63;100.00;100558.94;4872188;29;20045;-92
2023/08/12 04:37:05;;;;;;;0.30;0.30;;;;;;;13.61;100.00;100562.16;4841789;29;20045;-92
2023/08/12 04:39:32;;;;;;;0.85;0.65;;;;;;;13.64;100.00;100555.69;4857567;29;20052;-92
2023/08/12 04:41:58;;;;;;;0.05;0.05;;;;;;;13.71;100.00;100549.88;4835845;29;20603;-92
2023/08/12 04:44:24;;;;;;;0.77;0.60;;;;;;;13.85;100.00;100566.19;4843558;29;20136;-92
2023/08/12 04:46:50;;;;;;;0.85;0.68;;;;;;;13.87;100.00;100558.13;4851240;29;20818;-91
2023/08/12 04:49:18;;;;;;;0.10;0.10;;;;;;;13.96;100.00;100560.25;4826907;29;20049;-91
2023/08/12 04:51:43;;;;;;;5.05;1.63;;;;;;;13.90;100.00;100562.06;4872831;29;20046;-92
2023/08/12 04:54:09;;;;;;;0.20;0.20;;;;;;;14.03;100.00;100552.44;4844513;29;20430;-91
2023/08/12 04:56:35;;;;;;;0.45;0.45;;;;;;;14.21;100.00;100559.44;4873113;29;20048;-92
2023/08/12 04:59:01;;;;;;;0.20;0.20;;;;;;;14.25;100.00;100554.53;4855892;29;20041;-91
2023/08/12 05:01:27;;;;;;;0.57;0.40;;;;;;;14.21;100.00;100548.28;4874305;29;20547;-93
2023/08/12 05:03:54;;;;;;;0.57;0.57;;;;;;;14.32;100.00;100551.50;4847013;29;20112;-92
2023/08/12 05:06:20;;;;;;;1.13;0.80;;;;;;;14.42;100.00;100564.34;4867593;29;20120;-92
2023/08/12 05:08:46;;;;;;;0.57;0.40;;;;;;;14.58;100.00;100558.59;4844866;29;20069;-92
2023/08/12 05:11:12;;;;;;;0.15;0.15;;;;;;;14.70;100.00;100552.19;4876314;29;20041;-93
2023/08/12 05:13:38;;;;;;;0.28;0.28;;;;;;;14.84;100.00;100551.69;4858952;29;20051;-92
2023/08/12 05:16:04;;;;;;;0.55;0.55;;;;;;;15.04;100.00;100550.59;4852591;29;20081;-92
2023/08/12 05:18:29;;;;;;;0.68;0.43;;;;;;;15.21;100.00;100551.94;4863734;29;20048;-92
2023/08/12 05:20:55;;;;;;;0.43;0.43;;;;;;;15.41;100.00;100546.78;4844725;29;20033;-91
2023/08/12 05:23:21;;;;;;;0.40;0.40;;;;;;;15.51;100.00;100554.00;4863909;29;20057;-93
2023/08/12 05:25:48;;;;;;;0.75;0.50;;;;;;;15.68;100.00;100554.56;4878019;29;20097;-92
2023/08/12 05:28:13;;;;;;;0.57;0.47;;;;;;;15.97;100.00;100562.59;4877474;29;20060;-92
2023/08/12 05:30:39;;;;;;;0.77;0.77;;;;;;;16.30;100.00;100546.81;4861237;29;20193;-93
2023/08/12 05:33:05;;;;;;;0.20;0.20;;;;;;;16.52;100.00;100546.69;4847462;29;20050;-93
2023/08/12 05:35:34;;;;;;;0.43;0.43;;;;;;;16.74;100.00;100553.72;4864360;29;20154;-92
2023/08/12 05:38:00;;;;;;;0.30;0.30;;;;;;;16.96;100.00;100558.38;4875553;29;20049;-92
2023/08/12 05:40:25;;;;;;;0.52;0.40;;;;;;;17.13;100.00;100560.41;4864428;29;20051;-92
2023/08/12 05:42:51;;;;;;;0.80;0.43;;;;;;;17.30;100.00;100552.44;4873125;29;20045;-93
2023/08/12 05:45:16;;;;;;;0.30;0.30;;;;;;;17.57;100.00;100555.19;4875198;29;20041;-93
2023/08/12 05:47:41;;;;;;;0.73;0.70;;;;;;;17.73;100.00;100547.63;4877647;29;20076;-92
2023/08/12 05:50:07;;;;;;;0.47;0.47;;;;;;;17.97;100.00;100562.50;4886418;29;20106;-92
2023/08/12 05:52:33;;;;;;;0.28;0.28;;;;;;;18.02;100.00;100559.03;4874856;29;20060;-92
2023/08/12 05:54:58;;;;;;;0.20;0.20;;;;;;;18.12;100.00;100552.91;4874541;29;20124;-92
2023/08/12 05:57:24;;;;;;;0.75;0.65;;;;;;;18.34;100.00;100558.22;4857404;29;20061;-91
2023/08/12 05:59:49;;;;;;;0.60;0.60;;;;;;;18.46;100.00;100551.59;4870213;29;20132;-93
2023/08/12 06:02:15;;;;;;;0.50;0.50;;;;;;;18.67;100.00;100551.78;4875034;29;20497;-93
2023/08/12 06:04:40;;;;;;;1.98;1.00;;;;;;;18.93;100.00;100564.03;4874202;29;20052;-94
2023/08/12 06:07:06;;;;;;;0.75;0.65;;;;;;;19.15;100.00;100550.41;4862094;29;20045;-93
2023/08/12 06:09:32;;;;;;;0.75;0.50;;;;;;;19.46;100.00;100562.00;4874623;29;20041;-93
2023/08/12 06:11:57;;;;;;;0.52;0.40;;;;;;;19.69;100.00;100557.53;4884414;29;20056;-93
2023/08/12 06:14:23;;;;;;;0.50;0.50;;;;;;;19.93;100.00;100560.97;4875514;29;20409;-92
2023/08/12 06:16:48;;;;;;;1.17;0.80;;;;;;;20.24;100.00;100566.03;4874777;29;20053;-92
2023/08/12 06:19:14;;;;;;;0.80;0.80;;;;;;;20.42;100.00;100554.50;4873627;29;20071;-93
2023/08/12 06:21:39;;;;;;;0.45;0.40;;;;;;;20.62;100.00;100558.59;4846764;29;20158;-93
2023/08/12 06:24:05;;;;;;;0.55;0.55;;;;;;;20.77;100.00;100562.13;4875506;29;20049;-93
2023/08/12 06:26:30;;;;;;;0.40;0.40;;;;;;;21.10;100.00;100565.31;4874290;29;20037;-91
2023/08/12 06:28:56;;;;;;;0.40;0.40;;;;;;;21.21;100.00;100568.25;4874102;29;20112;-92
2023/08/12 06:31:21;;;;;;;0.30;0.30;;;;;;;21.32;100.00;100559.91;4862326;29;20449;-92
2023/08/12 06:33:47;;;;;;;0.90;0.63;;;;;;;21.64;100.00;100563.50;4865692;29;20053;-92
2023/08/12 06:36:12;;;;;;;1.45;0.73;;;;;;;21.74;100.00;100566.94;4870869;29;20033;-91
2023/08/12 06:38:38;;;;;;;0.52;0.40;;;;;;;22.06;100.00;100562.84;4871485;29;20056;-91
2023/08/12 06:41:03;;;;;;;1.33;0.70;;;;;;;22.20;99.53;100556.22;4857621;29;20089;-92
2023/08/12 06:43:29;;;;;;;0.70;0.40;;;;;;;22.46;97.51;100566.66;4874611;29;20057;-92
2023/08/12 06:45:55;;;;;;;0.35;0.20;;;;;;;22.67;89.02;100568.03;4872846;29;20099;-93
2023/08/12 06:48:20;;;;;;;0.25;0.25;;;;;;;22.74;84.05;100557.03;4875452;29;20061;-91
2023/08/12 06:50:46;;;;;;;0.38;0.38;;;;;;;23.00;87.19;100562.53;4861050;29;20045;-92
2023/08/12 06:53:11;;;;;;;0.70;0.70;;;;;;;23.17;88.98;100554.81;4875110;29;20124;-93
2023/08/12 06:55:43;;;;;;;0.88;0.82;;;;;;;23.32;88.43;100568.75;4874167;29;20057;-92
2023/08/12 06:58:09;;;;;;;0.53;0.53;;;;;;;23.35;86.59;100547.13;4872899;29;20517;-93
2023/08/12 07:00:35;;;;;;;0.30;0.15;;;;;;;23.66;82.55;100561.84;4863445;29;20044;-93
2023/08/12 07:03:00;;;;;;;0.93;0.85;;;;;;;23.65;80.12;100560.31;4866993;29;20124;-92
2023/08/12 07:05:26;;;;;;;0.30;0.30;;;;;;;23.65;82.16;100565.97;4841267;29;20332;-93
2023/08/12 07:07:51;;;;;;;0.20;0.20;;;;;;;23.90;84.36;100564.13;4839267;29;20045;-92
2023/08/12 07:10:17;;;;;;;0.32;0.32;;;;;;;23.96;81.61;100555.63;4857654;29;20041;-92
2023/08/12 07:12:42;;;;;;;3.15;0.80;;;;;;;24.09;79.98;100553.03;4856997;29;20425;-93
2023/08/12 07:15:10;;;;;;;0.55;0.55;;;;;;;24.24;80.75;100562.06;4867334;29;20108;-92
2023/08/12 07:17:36;;;;;;;0.47;0.47;;;;;;;24.40;79.78;100551.94;4865043;29;20042;-92
2023/08/12 07:20:02;;;;;;;0.85;0.65;;;;;;;24.42;78.02;100558.66;4870633;29;20056;-92
2023/08/12 07:22:27;;;;;;;0.40;0.40;;;;;;;24.67;79.30;100562.41;4874388;29;20044;-92
2023/08/12 07:24:54;;;;;;;0.65;0.55;;;;;;;24.69;80.41;100559.84;4873729;29;20041;-93
2023/08/12 07:27:19;;;;;;;0.43;0.35;;;;;;;24.90;76.90;100563.13;4872839;29;20039;-94
2023/08/12 07:29:46;;;;;;;0.10;0.10;;;;;;;24.49;75.47;100569.47;4842601;29;20492;-94
2023/08/12 07:32:12;;;;;;;0.60;0.60;;;;;;;24.36;80.50;100555.06;4864184;29;20046;-93
2023/08/12 07:34:37;;;;;;;0.38;0.38;;;;;;;24.60;81.74;100557.28;4854822;29;20105;-94
2023/08/12 07:37:03;;;;;;;0.30;0.30;;;;;;;24.65;78.82;100552.88;4833659;29;20053;-93
2023/08/12 07:39:28;;;;;;;0.43;0.40;;;;;;;24.63;78.74;100561.16;4845822;29;20068;-93
2023/08/12 07:41:54;;;;;;;0.65;0.65;;;;;;;24.88;74.57;100566.47;4873082;29;20060;-93
2023/08/12 07:44:19;;;;;;;0.98;0.50;;;;;;;25.12;76.83;100567.88;4873660;29;20119;-93
2023/08/12 07:46:45;;;;;;;0.82;0.82;;;;;;;25.40;77.83;100554.25;4873838;29;20053;-94
2023/08/12 07:49:11;;;;;;;1.25;1.20;;;;;;;25.34;80.16;100562.06;4845052;29;20573;-93
2023/08/12 07:51:37;;;;;;;0.47;0.47;;;;;;;25.65;78.24;100566.50;4834588;29;20084;-94
2023/08/12 07:54:02;;;;;;;0.75;0.38;;;;;;;25.97;75.88;100571.09;4839328;29;20057;-94
2023/08/12 07:56:28;;;;;;;1.27;1.17;;;;;;;26.28;71.10;100569.81;4874045;29;20041;-93
2023/08/12 07:58:53;;;;;;;0.35;0.35;;;;;;;26.04;72.19;100566.16;4842214;29;20036;-94
2023/08/12 08:01:19;;;;;;;0.55;0.55;;;;;;;25.90;72.94;100557.50;4873799;29;20396;-94
2023/08/12 08:03:44;;;;;;;0.63;0.60;;;;;;;25.91;76.17;100553.34;4844091;29;20045;-95
2023/08/12 08:06:13;;;;;;;1.40;0.50;;;;;;;25.83;78.43;100560.91;4842225;29;20065;-94
2023/08/12 08:08:39;;;;;;;0.30;0.30;;;;;;;26.30;76.10;100560.72;4843686;29;20046;-93
2023/08/12 08:11:05;;;;;;;1.30;1.20;;;;;;;26.34;74.15;100555.50;4841951;29;20040;-96
2023/08/12 08:14:00;;;;;;;0.40;0.35;;;;;;;26.45;75.82;100549.69;4849821;29;20117;-94
2023/08/12 08:17:06;;;;;;;0.60;0.40;;;;;;;26.28;70.07;100554.81;4864277;29;20049;-95
2023/08/12 08:20:07;;;;;;;0.40;0.35;;;;;;;26.80;72.53;100552.34;4884656;29;20068;-94
2023/08/12 08:23:28;;;;;;;1.08;0.52;;;;;;;27.05;68.83;100563.69;4877385;29;20102;-92
2023/08/12 08:25:54;;;;;;;0.55;0.55;;;;;;;27.33;65.20;100558.34;4784971;29;20525;-95
2023/08/12 08:28:19;;;;;;;0.70;0.52;;;;;;;27.55;60.47;100545.84;4833333;29;20041;-94
2023/08/12 08:30:45;;;;;;;0.30;0.30;;;;;;;27.80;60.41;100567.19;4842978;29;20049;-95
2023/08/12 08:33:10;;;;;;;0.50;0.50;;;;;;;27.95;59.66;100546.69;4842510;29;20086;-96
2023/08/12 08:35:39;;;;;;;0.98;0.88;;;;;;;27.87;57.99;100551.50;4853561;29;20049;-94
2023/08/12 08:38:04;;;;;;;4.07;1.75;;;;;;;28.08;58.45;100552.41;4850099;29;20032;-95
2023/08/12 08:40:30;;;;;;;1.30;0.68;;;;;;;28.32;50.61;100551.47;4846072;29;20102;-94
2023/08/12 08:43:00;;;;;;;0.88;0.65;;;;;;;28.56;47.02;100559.81;4826556;29;20524;-94
2023/08/12 08:45:25;;;;;;;0.70;0.47;;;;;;;28.73;48.11;100555.31;4835457;29;20072;-96
2023/08/12 08:47:52;;;;;;;0.57;0.57;;;;;;;28.95;48.19;100561.88;4840615;29;20486;-96
2023/08/12 08:50:18;;;;;;;1.63;0.98;;;;;;;28.84;47.07;100554.28;4852438;29;20048;-96
2023/08/12 08:52:43;;;;;;;1.05;0.68;;;;;;;28.93;45.58;100544.50;4845419;29;20425;-95
2023/08/12 08:55:09;;;;;;;0.70;0.52;;;;;;;29.21;46.38;100547.50;4860718;29;20037;-96
2023/08/12 08:57:36;;;;;;;0.70;0.60;;;;;;;28.54;41.50;100546.09;4829473;29;20079;-95
2023/08/12 09:00:01;;;;;;;0.98;0.60;;;;;;;28.62;42.34;100555.53;4860169;29;20057;-95
2023/08/12 09:02:27;;;;;;;0.77;0.77;;;;;;;28.79;42.85;100540.16;4828635;29;20073;-95
2023/08/12 09:04:52;;;;;;;0.57;0.57;;;;;;;29.12;42.49;100545.09;4857541;29;20041;-96
2023/08/12 09:07:19;;;;;;;0.20;0.20;;;;;;;29.42;38.73;100556.88;4876366;29;20053;-95
2023/08/12 09:09:48;;;;;;;0.20;0.20;;;;;;;29.46;39.42;100550.81;4842323;29;20049;-96
2023/08/12 09:12:15;;;;;;;0.65;0.65;;;;;;;29.55;37.10;100558.91;4864626;29;20204;-96
2023/08/12 09:14:41;;;;;;;0.63;0.60;;;;;;;29.39;37.96;100552.28;4869293;29;20052;-95
2023/08/12 09:17:07;;;;;;;0.32;0.32;;;;;;;29.64;39.46;100556.31;4857267;29;20526;-96
2023/08/12 09:19:33;;;;;;;0.40;0.40;;;;;;;29.35;39.67;100560.44;4850708;29;20037;-96
2023/08/12 09:21:58;;;;;;;0.77;0.63;;;;;;;29.02;40.22;100553.38;4857660;29;20049;-95
2023/08/12 09:24:27;;;;;;;0.68;0.52;;;;;;;29.06;39.22;100561.59;4854082;29;20053;-95
2023/08/12 09:26:54;;;;;;;0.30;0.30;;;;;;;29.02;40.98;100552.63;4860024;29;20052;-96
2023/08/12 09:29:39;;;;;;;0.32;0.32;;;;;;;29.30;40.26;100544.19;4838438;29;20048;-96
2023/08/12 09:32:12;;;;;;;0.60;0.50;;;;;;;29.68;40.40;100558.84;4851147;29;20049;-96
2023/08/12 09:34:53;;;;;;;1.42;1.08;;;;;;;29.80;40.31;100542.16;4856870;29;20424;-95
2023/08/12 09:37:20;;;;;;;1.13;1.08;;;;;;;29.76;38.55;100553.19;4875485;29;20048;-96
2023/08/12 09:39:47;;;;;;;1.05;0.73;;;;;;;29.51;38.75;100544.97;4875530;29;20049;-96
2023/08/12 09:42:13;;;;;;;0.45;0.45;;;;;;;29.63;37.93;100548.31;4833085;29;20046;-96
2023/08/12 09:44:39;;;;;;;0.98;0.65;;;;;;;29.72;37.81;100542.13;4840665;29;20053;-95
2023/08/12 09:47:06;;;;;;;0.15;0.15;;;;;;;29.82;36.91;100540.28;4865785;29;20090;-96
2023/08/12 09:49:32;;;;;;;0.20;0.20;;;;;;;29.99;36.47;100546.34;4887226;29;20081;-96
2023/08/12 09:51:57;;;;;;;0.45;0.45;;;;;;;30.23;36.32;100547.28;4875512;29;20514;-95
2023/08/12 09:54:26;;;;;;;0.98;0.68;;;;;;;30.08;35.42;100547.94;4859835;29;20084;-96
2023/08/12 09:57:00;;;;;;;0.60;0.60;;;;;;;29.50;35.08;100543.44;4859999;29;20041;-95
2023/08/12 09:59:35;;;;;;;0.45;0.40;;;;;;;29.25;35.20;100547.91;4871954;29;20069;-96
2023/08/12 10:02:06;;;;;;;0.50;0.50;;;;;;;28.98;36.53;100540.75;4843322;29;20077;-96
2023/08/12 10:04:41;;;;;;;0.57;0.57;;;;;;;29.32;34.94;100541.53;4860006;29;20060;-95
2023/08/12 10:07:12;;;;;;;0.25;0.25;;;;;;;29.33;34.96;100520.22;4871434;29;20127;-96
2023/08/12 10:09:38;;;;;;;0.85;0.45;;;;;;;29.49;35.43;100526.84;4841895;29;20528;-96
2023/08/12 10:12:05;;;;;;;0.52;0.50;;;;;;;29.61;34.83;100533.81;4869375;29;20041;-96
2023/08/12 10:14:31;;;;;;;0.60;0.60;;;;;;;29.91;34.67;100533.31;4867615;29;20661;-96
2023/08/12 10:16:58;;;;;;;1.85;0.82;;;;;;;30.01;35.13;100522.91;4855633;29;20057;-94
2023/08/12 10:19:25;;;;;;;0.50;0.50;;;;;;;30.23;33.76;100525.16;4864289;29;20050;-96
2023/08/12 10:21:57;;;;;;;0.63;0.57;;;;;;;30.33;33.18;100511.84;4873752;29;20045;-96
2023/08/12 10:24:24;;;;;;;0.95;0.73;;;;;;;30.26;33.00;100524.03;4875418;29;20080;-96
2023/08/12 10:26:52;;;;;;;0.73;0.70;;;;;;;30.04;32.76;100502.53;4844382;29;20064;-96
2023/08/12 10:29:17;;;;;;;0.52;0.52;;;;;;;30.37;32.31;100506.53;4841579;29;20490;-96
2023/08/12 10:31:44;;;;;;;0.95;0.90;;;;;;;30.26;31.60;100518.28;4857001;29;20090;-96
2023/08/12 10:34:19;;;;;;;0.30;0.30;;;;;;;30.26;31.68;100509.72;4874494;29;20108;-96
2023/08/12 10:36:44;;;;;;;0.80;0.80;;;;;;;30.48;30.54;100508.34;4842547;29;20167;-96
2023/08/12 10:39:10;;;;;;;0.52;0.50;;;;;;;30.51;30.05;100501.47;4852071;29;20451;-96
2023/08/12 10:41:36;;;;;;;0.43;0.43;;;;;;;30.75;30.68;100500.22;4841086;29;20072;-95
2023/08/12 10:44:03;;;;;;;0.45;0.45;;;;;;;30.84;31.01;100496.84;4869481;29;20048;-95
2023/08/12 10:46:35;;;;;;;0.95;0.80;;;;;;;30.95;29.91;100502.97;4852844;29;20041;-96
2023/08/12 10:49:08;;;;;;;0.40;0.40;;;;;;;31.25;30.12;100490.84;4854945;29;20141;-96
2023/08/12 10:51:49;;;;;;;0.50;0.50;;;;;;;31.34;30.30;100493.13;4875688;29;20036;-96
2023/08/12 10:54:22;;;;;;;0.60;0.60;;;;;;;30.41;30.08;100503.31;4842528;29;20080;-96
2023/08/12 10:57:08;;;;;;;0.40;0.40;;;;;;;30.14;31.28;100499.91;4859292;29;20072;-94
2023/08/12 10:59:46;;;;;;;0.60;0.60;;;;;;;30.47;31.34;100501.84;4866408;29;20486;-94
2023/08/12 11:02:26;;;;;;;0.40;0.40;;;;;;;30.80;30.88;100502.16;4870838;29;20521;-94
2023/08/12 11:04:53;;;;;;;0.43;0.43;;;;;;;30.87;30.79;100485.00;4855297;29;20149;-94
2023/08/12 11:07:28;;;;;;;0.88;0.88;;;;;;;31.01;30.13;100488.50;4860987;29;20049;-94
2023/08/12 11:09:59;;;;;;;0.20;0.20;;;;;;;30.36;30.04;100487.84;4846466;29;20042;-93
2023/08/12 11:12:33;;;;;;;1.30;1.20;;;;;;;30.05;30.78;100480.41;4884214;29;20463;-94
2023/08/12 11:15:00;;;;;;;0.28;0.28;;;;;;;30.11;30.87;100472.44;4845774;29;20057;-94
2023/08/12 11:17:37;;;;;;;0.60;0.60;;;;;;;30.32;31.61;100493.16;4874539;29;20132;-96
2023/08/12 11:20:07;;;;;;;0.68;0.68;;;;;;;30.04;30.91;100447.41;4860557;29;20062;-96
2023/08/12 11:22:37;;;;;;;0.70;0.70;;;;;;;30.16;31.34;100462.94;4855883;29;20045;-96
2023/08/12 11:25:07;;;;;;;0.60;0.60;;;;;;;30.34;30.99;100467.59;4864933;29;20053;-96
2023/08/12 11:27:47;;;;;;;0.32;0.32;;;;;;;30.48;30.75;100480.47;4864931;29;20551;-96
2023/08/12 11:30:15;;;;;;;0.50;0.50;;;;;;;30.67;31.05;100470.81;4881012;29;20083;-96
2023/08/12 11:32:43;;;;;;;0.43;0.43;;;;;;;30.80;31.18;100436.28;4881390;29;20037;-96
2023/08/12 11:35:09;;;;;;;0.70;0.60;;;;;;;30.89;30.17;100464.38;4857842;29;20042;-96
2023/08/12 11:37:36;;;;;;;0.77;0.77;;;;;;;30.87;30.29;100444.13;4875648;29;20054;-96
2023/08/12 11:40:04;;;;;;;0.73;0.63;;;;;;;30.65;30.68;100421.94;4881124;29;20071;-96
2023/08/12 11:42:30;;;;;;;0.35;0.35;;;;;;;30.83;31.94;100420.81;4866071;29;20069;-96
2023/08/12 11:44:56;;;;;;;0.75;0.68;;;;;;;31.16;30.99;100425.50;4846197;29;20077;-96
2023/08/12 11:47:22;;;;;;;0.75;0.55;;;;;;;31.06;30.88;100421.66;4846911;29;20049;-96
2023/08/12 11:49:47;;;;;;;0.30;0.30;;;;;;;31.31;31.16;100450.50;4859872;29;20049;-94
2023/08/12 11:52:13;;;;;;;1.17;0.85;;;;;;;30.69;31.09;100439.53;4841779;29;20128;-94
2023/08/12 11:54:39;;;;;;;0.50;0.50;;;;;;;30.23;32.24;100452.84;4846050;29;20049;-94
2023/08/12 11:57:05;;;;;;;0.55;0.47;;;;;;;29.72;31.89;100438.41;4876898;29;20049;-94
2023/08/12 11:59:31;;;;;;;0.50;0.50;;;;;;;29.68;32.10;100440.88;4843389;29;20510;-94
2023/08/12 12:01:56;;;;;;;0.75;0.75;;;;;;;29.89;32.81;100433.00;4857481;29;20037;-94
2023/08/12 12:04:22;;;;;;;0.40;0.40;;;;;;;30.31;32.86;100442.97;4861421;29;20061;-93
2023/08/12 12:06:48;;;;;;;0.50;0.50;;;;;;;30.47;31.34;100444.59;4877592;29;20059;-94
2023/08/12 12:09:14;;;;;;;7.43;1.23;;;;;;;30.78;32.41;100436.09;4846421;29;20125;-94
2023/08/12 12:11:41;;;;;;;0.43;0.43;;;;;;;31.19;32.06;100435.03;4887778;29;20059;-94
2023/08/12 12:14:08;;;;;;;0.47;0.47;;;;;;;31.17;32.23;100417.66;4858114;29;20116;-94
2023/08/12 12:16:41;;;;;;;0.90;0.90;;;;;;;31.31;31.72;100431.22;4855473;29;20049;-94
2023/08/12 12:19:18;;;;;;;0.55;0.52;;;;;;;31.54;31.86;100436.22;4861150;29;20235;-94
2023/08/12 12:21:52;;;;;;;0.77;0.45;;;;;;;31.43;32.32;100423.75;4858702;29;20513;-95
2023/08/12 12:24:18;;;;;;;0.30;0.30;;;;;;;30.51;32.58;100424.19;4858647;29;20057;-94
2023/08/12 12:26:45;;;;;;;0.38;0.30;;;;;;;30.26;34.30;100421.00;4863834;29;20068;-95
2023/08/12 12:29:14;;;;;;;0.82;0.60;;;;;;;30.60;33.91;100425.75;4861570;29;20049;-95